Etusivu
METAR-TAF:

METAR-TAF

Lentoasemat :

Bagdad, Irak

Bagdadin kansainvälinen lentoasema

Leveyspiiri: 33-15-45N, Pituuspiiri: 44-14-04E, korkeus merenpinnasta: 35 m

Tämänhetkinen sää

Tämä raportti tehtiin 32 minuuttia sitten, kello 17.00 UTC
Tuuli 2 kn eri suunnista
Lämpötila 18°C
Kosteus 42%
Ilmanpaine 1018 hPa
Näkyvyys: 9000 m

METAR: ORBI 171700Z VRB02KT 9000 NSC 18/05 Q1018 NOSIG

Aika: 20:32 (17:32 UTC)

Sääennuste

Tämä raportti tehtiin 7 tuntia ja 32 minuuttia sitten, kello 10.00 UTC
Ennuste voimassa 17. päivästä klo 12 UTC - 18. päivään klo 12 UTC
Tuuli 6 kn lännestä/luoteesta
Näkyvyys 10 km tai enemmän
ei pilviä alle 1500 m:ssä eikä cumulonimbus-pilviä
Tulossa
18. päivästä klo 00 UTC - 18. päivään klo 02 UTC
Tuuli 3 kn eri suunnista
Tulossa
18. päivästä klo 07 UTC - 18. päivään klo 09 UTC
Tuuli 6 kn idästä/kaakosta

TAF: ORBI 171000Z 1712/1812 30006KT CAVOK BECMG 1800/1802 VRB03KT BECMG 1807/1809 12006KT

Säähavainnot ja -ennusteet yli 4000 lentoasemalta (METAR- ja TAF-raportit).

Käytössä olevat sääasemat on merkitty karttaan keltaisilla ja punaisilla pisteillä.

Aseta hiiri pisteen päälle nähdäksesi sääaseman nimen.

Klikkaa sitten nähdäksesi säähavainnot ja -ennusteet.

Kartan vaihtaminen: klikkaa mustalla rastilla varustettuja vihreitä pisteitä, niin voit zoomata sisään; viivalla varustettua vihreää pistettä, niin voit zoomata ulos tai vihreitä nuolia, niin pääset viereisille kartoille.


METAR-TAF: